Time;durP1;ratioP1;P1;durP2;ratioP2;P2;SDS_P1;SDS_P2;PMS_P1;PMS_P2;Temp;Humidity;BMP_temperature;BMP_pressure;BME280_temperature;BME280_humidity;BME280_pressure;Samples;Min_cycle;Max_cycle;Signal;HPM_P1;HPM_P2
2022/11/16 00:01:34;;;;;;;4.53;1.60;;;9.10;99.90;;;;;;4211855;28;20233;-67
2022/11/16 00:03:35;;;;;;;1.20;1.10;;;9.00;99.90;;;;;;4212442;28;20193;-68
2022/11/16 00:05:35;;;;;;;1.20;0.90;;;9.00;99.90;;;;;;4212338;28;20186;-66
2022/11/16 00:07:36;;;;;;;1.00;0.90;;;9.00;99.90;;;;;;4212062;28;20178;-68
2022/11/16 00:09:37;;;;;;;1.50;1.10;;;9.10;99.90;;;;;;4212250;28;20183;-67
2022/11/16 00:11:38;;;;;;;1.13;1.03;;;9.00;99.90;;;;;;4210052;28;20186;-68
2022/11/16 00:13:40;;;;;;;1.80;1.10;;;9.00;99.90;;;;;;4212384;28;20288;-67
2022/11/16 00:15:40;;;;;;;1.93;1.10;;;9.00;99.90;;;;;;4212099;28;20182;-67
2022/11/16 00:17:41;;;;;;;3.63;1.30;;;9.00;99.90;;;;;;4212186;28;20236;-67
2022/11/16 00:19:42;;;;;;;1.20;1.10;;;9.10;99.90;;;;;;4212018;28;20207;-67
2022/11/16 00:21:43;;;;;;;1.40;0.93;;;9.00;99.90;;;;;;4211438;28;20182;-66
2022/11/16 00:23:43;;;;;;;1.87;1.20;;;9.00;99.90;;;;;;4224148;28;20197;-67
2022/11/16 00:25:45;;;;;;;1.83;1.20;;;9.00;99.90;;;;;;4228866;28;20649;-66
2022/11/16 00:27:45;;;;;;;1.37;1.00;;;9.10;99.90;;;;;;4228770;28;20235;-67
2022/11/16 00:29:46;;;;;;;2.20;1.10;;;9.00;99.90;;;;;;4228842;28;20186;-67
2022/11/16 00:31:47;;;;;;;1.10;1.00;;;9.10;99.90;;;;;;4228335;28;20542;-67
2022/11/16 00:33:49;;;;;;;1.27;0.83;;;9.10;99.90;;;;;;4228611;28;20893;-66
2022/11/16 00:35:50;;;;;;;0.93;0.83;;;9.20;99.90;;;;;;4227428;28;20312;-66
2022/11/16 00:37:51;;;;;;;1.00;0.87;;;9.20;99.90;;;;;;4228679;28;20182;-66
2022/11/16 00:39:51;;;;;;;2.87;1.10;;;9.30;99.90;;;;;;4228368;28;20567;-67
2022/11/16 00:41:52;;;;;;;1.00;0.90;;;9.40;99.90;;;;;;4228064;28;20257;-67
2022/11/16 00:43:53;;;;;;;1.10;0.87;;;9.40;99.90;;;;;;4228671;28;20239;-66
2022/11/16 00:45:53;;;;;;;1.03;0.93;;;9.30;99.90;;;;;;4228557;28;20784;-67
2022/11/16 00:47:54;;;;;;;1.63;0.90;;;9.30;99.90;;;;;;4228641;28;20182;-66
2022/11/16 00:49:55;;;;;;;0.77;0.77;;;9.40;99.90;;;;;;4228525;28;20186;-66
2022/11/16 00:51:55;;;;;;;0.70;0.70;;;9.40;99.90;;;;;;4229630;28;20174;-67
2022/11/16 00:53:56;;;;;;;1.27;1.10;;;9.50;99.90;;;;;;4232071;28;20189;-67
2022/11/16 00:55:57;;;;;;;1.33;0.80;;;9.60;99.90;;;;;;4231679;28;20726;-67
2022/11/16 00:57:57;;;;;;;0.80;0.80;;;9.60;99.90;;;;;;4231795;28;20178;-67
2022/11/16 00:59:58;;;;;;;1.30;0.90;;;9.60;99.90;;;;;;4231523;28;20210;-67
2022/11/16 01:01:59;;;;;;;0.97;0.87;;;9.70;99.90;;;;;;4231026;28;20783;-67
2022/11/16 01:03:59;;;;;;;1.23;1.10;;;9.70;99.90;;;;;;4231898;28;20583;-66
2022/11/16 01:06:03;;;;;;;0.80;0.80;;;9.70;99.90;;;;;;4231655;28;20182;-67
2022/11/16 01:08:04;;;;;;;1.60;1.00;;;9.60;99.90;;;;;;4250132;27;20256;-67
2022/11/16 01:10:12;;;;;;;0.83;0.80;;;9.70;99.90;;;;;;4258215;27;20774;-68
2022/11/16 01:12:13;;;;;;;0.80;0.80;;;9.60;99.90;;;;;;4234345;28;20170;-67
2022/11/16 01:14:14;;;;;;;1.37;0.80;;;9.60;99.90;;;;;;4231965;28;20651;-67
2022/11/16 01:16:17;;;;;;;0.83;0.70;;;9.70;99.90;;;;;;4231881;28;20206;-67
2022/11/16 01:18:18;;;;;;;0.90;0.77;;;9.70;99.90;;;;;;4231715;28;20217;-67
2022/11/16 01:20:24;;;;;;;0.60;0.60;;;9.70;99.90;;;;;;4230831;28;20194;-67
2022/11/16 01:22:25;;;;;;;1.57;0.80;;;9.60;99.90;;;;;;4231631;28;20165;-67
2022/11/16 01:24:26;;;;;;;0.90;0.60;;;9.70;99.90;;;;;;4247430;27;20561;-66
2022/11/16 01:26:27;;;;;;;0.63;0.63;;;9.70;99.90;;;;;;4230261;28;20178;-67
2022/11/16 01:28:29;;;;;;;1.10;0.90;;;9.80;99.90;;;;;;4230176;28;20174;-67
2022/11/16 01:30:30;;;;;;;0.70;0.70;;;9.80;99.90;;;;;;4246525;27;20589;-67
2022/11/16 01:32:31;;;;;;;0.87;0.80;;;9.70;99.90;;;;;;4231460;28;20185;-67
2022/11/16 01:34:31;;;;;;;0.80;0.67;;;9.70;99.90;;;;;;4229879;28;20216;-66
2022/11/16 01:36:35;;;;;;;1.00;0.70;;;9.70;99.90;;;;;;4231295;28;20205;-67
2022/11/16 01:38:36;;;;;;;0.50;0.50;;;9.60;99.90;;;;;;4246456;27;20205;-67
2022/11/16 01:40:37;;;;;;;0.63;0.60;;;9.50;99.90;;;;;;4230565;28;20632;-68
2022/11/16 01:42:38;;;;;;;0.67;0.67;;;9.60;99.90;;;;;;4231152;28;20174;-67
2022/11/16 01:44:38;;;;;;;0.50;0.50;;;9.60;99.90;;;;;;4230894;28;20318;-67
2022/11/16 01:46:40;;;;;;;0.57;0.50;;;9.50;99.90;;;;;;4230930;28;20219;-68
2022/11/16 01:48:41;;;;;;;0.87;0.63;;;9.60;99.90;;;;;;4231336;28;20204;-68
2022/11/16 01:50:44;;;;;;;0.73;0.67;;;9.60;99.90;;;;;;4230490;28;20306;-68
2022/11/16 01:52:59;;;;;;;0.67;0.67;;;9.60;99.90;;;;;;4231029;28;20255;-67
2022/11/16 01:55:01;;;;;;;6.13;0.83;;;9.50;99.90;;;;;;4229775;28;20165;-68
2022/11/16 01:57:06;;;;;;;0.60;0.60;;;9.50;99.90;;;;;;4229460;28;20178;-67
2022/11/16 01:59:08;;;;;;;1.03;0.60;;;9.50;99.90;;;;;;4230595;28;20318;-68
2022/11/16 02:01:08;;;;;;;0.70;0.60;;;9.60;99.90;;;;;;4228538;28;20285;-67
2022/11/16 02:03:09;;;;;;;0.60;0.60;;;9.70;99.90;;;;;;4229405;28;20181;-68
2022/11/16 02:05:16;;;;;;;1.40;0.60;;;9.60;99.90;;;;;;4230497;28;20178;-68
2022/11/16 02:10:50;;;;;;;0.60;0.60;;;9.60;99.90;;;;;;4203422;28;20737;-67
2022/11/16 02:13:14;;;;;;;0.70;0.70;;;9.60;99.90;;;;;;4230515;28;20174;-67
2022/11/16 02:15:26;;;;;;;1.00;0.60;;;9.70;99.90;;;;;;4229357;28;20595;-68
2022/11/16 02:18:21;;;;;;;0.60;0.60;;;9.80;99.90;;;;;;4229201;28;20163;-67
2022/11/16 02:21:02;;;;;;;1.20;0.57;;;9.90;99.90;;;;;;4194898;28;20708;-67
2022/11/16 02:23:18;;;;;;;0.60;0.60;;;9.90;99.90;;;;;;4221600;28;20250;-68
2022/11/16 02:25:38;;;;;;;1.63;1.00;;;9.80;99.90;;;;;;4224428;28;20187;-69
2022/11/16 02:28:02;;;;;;;1.80;1.13;;;9.80;99.90;;;;;;4212159;28;20171;-67
2022/11/16 02:30:04;;;;;;;2.30;1.50;;;9.70;99.90;;;;;;4213528;28;20195;-67
2022/11/16 02:32:15;;;;;;;3.97;2.93;;;9.60;99.90;;;;;;4213143;28;20550;-66
2022/11/16 02:34:18;;;;;;;5.47;3.67;;;9.60;99.90;;;;;;4212289;28;20191;-66
2022/11/16 02:36:24;;;;;;;1.67;1.40;;;9.60;99.90;;;;;;4212560;28;20586;-67
2022/11/16 02:38:30;;;;;;;1.67;1.20;;;9.40;99.90;;;;;;4213379;28;20592;-66
2022/11/16 02:40:34;;;;;;;2.00;1.40;;;9.50;99.90;;;;;;4212799;28;20888;-67
2022/11/16 02:43:06;;;;;;;1.60;1.17;;;9.60;99.90;;;;;;4213423;28;20266;-66
2022/11/16 02:45:11;;;;;;;1.50;1.20;;;9.70;99.90;;;;;;4214068;28;20187;-67
2022/11/16 02:47:21;;;;;;;2.57;1.70;;;9.70;99.90;;;;;;4213125;28;20186;-67
2022/11/16 02:49:24;;;;;;;2.50;1.70;;;9.80;99.90;;;;;;4211797;28;20282;-66
2022/11/16 02:51:27;;;;;;;2.53;1.53;;;9.80;99.90;;;;;;4211563;28;20268;-67
2022/11/16 02:53:31;;;;;;;2.07;1.40;;;9.80;99.90;;;;;;4212178;28;20182;-66
2022/11/16 02:55:35;;;;;;;1.93;1.40;;;9.70;99.90;;;;;;4213086;28;20266;-67
2022/11/16 02:57:38;;;;;;;2.87;1.60;;;9.80;99.90;;;;;;4213075;28;20187;-67
2022/11/16 02:59:44;;;;;;;1.33;0.90;;;9.80;99.90;;;;;;4213201;28;20209;-67
2022/11/16 03:02:19;;;;;;;1.13;0.90;;;9.80;99.90;;;;;;4212826;28;20183;-67
2022/11/16 03:04:36;;;;;;;1.47;1.00;;;9.70;99.90;;;;;;4213402;28;20171;-67
2022/11/16 03:06:40;;;;;;;0.70;0.70;;;9.60;99.90;;;;;;4211927;28;20162;-69
2022/11/16 03:09:00;;;;;;;0.70;0.70;;;9.50;99.90;;;;;;4213423;28;20228;-67
2022/11/16 03:13:29;;;;;;;0.97;0.97;;;9.40;99.90;;;;;;4216702;28;20214;-67
2022/11/16 03:15:31;;;;;;;2.70;1.10;;;9.20;99.90;;;;;;4211820;28;20175;-67
2022/11/16 03:17:39;;;;;;;0.80;0.80;;;9.20;99.90;;;;;;4213288;28;20186;-66
2022/11/16 03:20:03;;;;;;;0.87;0.70;;;9.10;99.90;;;;;;4211995;28;20236;-67
2022/11/16 03:22:23;;;;;;;0.40;0.40;;;9.20;99.90;;;;;;4211231;28;20171;-68
2022/11/16 03:24:24;;;;;;;0.60;0.60;;;9.20;99.90;;;;;;4209121;28;20186;-65
2022/11/16 03:26:33;;;;;;;0.70;0.70;;;9.10;99.90;;;;;;4228262;28;20193;-67
2022/11/16 03:29:06;;;;;;;1.33;0.60;;;9.20;99.90;;;;;;4227496;28;20169;-67
2022/11/16 03:31:14;;;;;;;0.60;0.60;;;9.20;99.90;;;;;;4221263;28;20221;-67
2022/11/16 03:33:30;;;;;;;0.63;0.50;;;9.30;99.90;;;;;;4228366;28;20594;-68
2022/11/16 03:36:02;;;;;;;0.70;0.70;;;9.20;99.90;;;;;;4229566;28;20178;-67
2022/11/16 03:38:05;;;;;;;0.50;0.50;;;9.30;99.90;;;;;;4201517;28;20271;-67
2022/11/16 03:40:07;;;;;;;0.60;0.60;;;9.20;99.90;;;;;;4227848;28;20276;-67
2022/11/16 03:42:13;;;;;;;0.60;0.60;;;9.20;99.90;;;;;;4227577;28;20265;-67
2022/11/16 03:44:14;;;;;;;1.60;0.60;;;9.10;99.90;;;;;;4229295;28;20186;-67
2022/11/16 03:46:17;;;;;;;0.50;0.50;;;9.00;99.90;;;;;;4244803;27;20184;-67
2022/11/16 03:48:18;;;;;;;0.50;0.50;;;9.00;99.90;;;;;;4229035;28;20174;-67
2022/11/16 03:50:18;;;;;;;0.50;0.50;;;9.00;99.90;;;;;;4228503;28;20338;-67
2022/11/16 03:52:19;;;;;;;0.60;0.60;;;9.00;99.90;;;;;;4229089;28;20194;-66
2022/11/16 03:54:20;;;;;;;0.50;0.50;;;9.10;99.90;;;;;;4228759;28;20174;-66
2022/11/16 03:56:20;;;;;;;0.50;0.50;;;9.10;99.90;;;;;;4228821;28;20932;-67
2022/11/16 03:58:21;;;;;;;0.50;0.43;;;9.00;99.90;;;;;;4228871;28;20170;-67
2022/11/16 04:00:22;;;;;;;0.53;0.53;;;9.00;99.90;;;;;;4228328;28;20206;-67
2022/11/16 04:02:23;;;;;;;0.67;0.67;;;9.00;99.90;;;;;;4229135;28;20193;-68
2022/11/16 04:25:37;;;;;;;1.70;0.60;;;9.00;99.90;;;;;;4228760;28;20245;-67
2022/11/16 04:29:59;;;;;;;0.50;0.50;;;8.80;99.90;;;;;;4232240;28;20266;-66
2022/11/16 04:39:06;;;;;;;2.47;0.60;;;8.70;99.90;;;;;;4223334;28;20323;-67
2022/11/16 04:42:13;;;;;;;0.60;0.60;;;8.60;99.90;;;;;;4231871;28;20422;-66
2022/11/16 04:43:27;;;;;;;0.67;0.67;;;8.60;99.90;;;;;;4231885;28;20201;-66
2022/11/16 04:47:49;;;;;;;0.50;0.50;;;8.60;99.90;;;;;;4231910;28;20167;-66
2022/11/16 04:49:50;;;;;;;0.50;0.50;;;8.60;99.90;;;;;;4231902;28;20214;-67
2022/11/16 04:51:50;;;;;;;1.27;1.17;;;8.70;99.90;;;;;;4229881;28;20598;-67
2022/11/16 04:53:51;;;;;;;1.27;0.60;;;8.60;99.90;;;;;;4231815;28;20195;-67
2022/11/16 04:55:52;;;;;;;0.60;0.60;;;8.50;99.90;;;;;;4231772;28;20170;-68
2022/11/16 04:57:53;;;;;;;0.60;0.60;;;8.50;99.90;;;;;;4231772;28;20178;-66
2022/11/16 04:59:53;;;;;;;1.50;0.63;;;8.40;99.90;;;;;;4231604;28;20282;-67
2022/11/16 05:02:09;;;;;;;0.67;0.50;;;8.50;99.90;;;;;;4230866;28;20251;-70
2022/11/16 05:04:10;;;;;;;1.40;1.20;;;8.60;99.90;;;;;;4231473;28;20306;-67
2022/11/16 05:06:11;;;;;;;0.80;0.80;;;8.60;99.90;;;;;;4231558;28;20240;-67
2022/11/16 05:08:11;;;;;;;0.97;0.57;;;8.50;99.90;;;;;;4231366;28;20252;-67
2022/11/16 05:10:16;;;;;;;0.70;0.70;;;8.60;99.90;;;;;;4229610;28;20597;-67
2022/11/16 05:12:21;;;;;;;0.63;0.60;;;8.70;99.90;;;;;;4232378;28;20189;-67
2022/11/16 05:14:22;;;;;;;1.80;0.60;;;8.60;99.90;;;;;;4239821;28;20173;-67
2022/11/16 05:16:22;;;;;;;0.57;0.53;;;8.70;99.90;;;;;;4232931;28;20174;-67
2022/11/16 05:18:23;;;;;;;1.00;0.90;;;8.70;99.90;;;;;;4231437;28;20179;-66
2022/11/16 05:22:43;;;;;;;0.77;0.77;;;8.70;99.90;;;;;;4231390;28;20192;-67
2022/11/16 05:24:43;;;;;;;2.77;1.83;;;8.60;99.90;;;;;;4229900;28;20209;-67
2022/11/16 05:26:44;;;;;;;1.00;0.80;;;8.50;99.90;;;;;;4229998;28;20273;-67
2022/11/16 05:28:45;;;;;;;1.50;0.90;;;8.50;99.90;;;;;;4229943;28;20609;-66
2022/11/16 05:30:46;;;;;;;3.33;1.07;;;8.50;99.90;;;;;;4230721;28;20210;-67
2022/11/16 05:32:46;;;;;;;2.17;0.90;;;8.40;99.90;;;;;;4231297;28;20201;-67
2022/11/16 05:34:47;;;;;;;2.97;1.00;;;8.30;99.90;;;;;;4231232;28;20186;-67
2022/11/16 05:36:48;;;;;;;1.73;1.03;;;8.30;99.90;;;;;;4229772;28;20193;-67
2022/11/16 05:38:48;;;;;;;0.70;0.60;;;8.40;99.90;;;;;;4230917;28;20208;-67
2022/11/16 05:40:50;;;;;;;1.57;1.00;;;8.40;99.90;;;;;;4229600;27;20217;-66
2022/11/16 05:42:50;;;;;;;2.23;0.80;;;8.30;99.90;;;;;;4230577;27;20550;-67
2022/11/16 05:44:51;;;;;;;1.10;1.00;;;8.40;99.90;;;;;;4239348;27;20193;-67
2022/11/16 05:46:54;;;;;;;1.83;0.90;;;8.40;99.90;;;;;;4247834;27;20184;-68
2022/11/16 05:48:54;;;;;;;1.87;1.00;;;8.50;99.90;;;;;;4247747;27;20186;-67
2022/11/16 05:50:59;;;;;;;3.30;1.13;;;8.30;99.90;;;;;;4247049;27;20216;-67
2022/11/16 05:52:59;;;;;;;1.37;1.10;;;8.40;99.90;;;;;;4241064;27;20260;-67
2022/11/16 05:55:00;;;;;;;2.03;1.33;;;8.40;99.90;;;;;;4230594;28;20648;-67
2022/11/16 05:57:00;;;;;;;2.53;1.37;;;8.50;99.90;;;;;;4230491;28;20198;-67
2022/11/16 05:59:01;;;;;;;2.10;1.00;;;8.40;99.90;;;;;;4229445;28;20224;-67
2022/11/16 06:01:02;;;;;;;2.50;1.03;;;8.40;99.90;;;;;;4228606;28;20831;-66
2022/11/16 06:03:03;;;;;;;0.93;0.80;;;8.40;99.90;;;;;;4230551;28;20548;-67
2022/11/16 06:05:04;;;;;;;3.90;1.43;;;8.40;99.90;;;;;;4230483;28;20273;-67
2022/11/16 06:07:04;;;;;;;3.43;1.30;;;8.20;99.90;;;;;;4230513;28;20652;-67
2022/11/16 06:09:06;;;;;;;2.77;1.10;;;8.10;99.90;;;;;;4230418;28;20185;-68
2022/11/16 06:11:09;;;;;;;5.77;1.70;;;8.00;99.90;;;;;;4229704;28;20231;-68
2022/11/16 06:13:09;;;;;;;2.83;1.20;;;7.90;99.90;;;;;;4230432;28;20192;-67
2022/11/16 06:15:10;;;;;;;3.40;1.30;;;7.90;99.90;;;;;;4230472;28;20182;-68
2022/11/16 06:17:13;;;;;;;3.43;1.10;;;7.90;99.90;;;;;;4230366;28;20186;-68
2022/11/16 06:19:14;;;;;;;2.47;1.00;;;7.90;99.90;;;;;;4224041;28;20205;-68
2022/11/16 06:21:17;;;;;;;6.93;1.50;;;7.80;99.90;;;;;;4213179;28;20203;-68
2022/11/16 06:23:18;;;;;;;5.17;1.30;;;7.90;99.90;;;;;;4213490;28;20190;-68
2022/11/16 06:25:18;;;;;;;4.23;1.33;;;7.90;99.90;;;;;;4213737;28;20167;-68
2022/11/16 06:27:19;;;;;;;3.67;1.10;;;7.90;99.90;;;;;;4213388;28;20268;-67
2022/11/16 06:29:20;;;;;;;2.30;1.10;;;7.90;99.90;;;;;;4213398;28;20190;-68
2022/11/16 06:31:21;;;;;;;2.47;1.20;;;7.90;99.90;;;;;;4212910;28;20681;-67
2022/11/16 06:33:22;;;;;;;5.37;1.30;;;8.00;99.90;;;;;;4213581;28;20200;-68
2022/11/16 06:35:23;;;;;;;4.87;1.60;;;8.10;99.90;;;;;;4213619;28;20182;-67
2022/11/16 06:37:23;;;;;;;4.93;1.33;;;8.10;99.90;;;;;;4213345;28;20185;-67
2022/11/16 06:39:24;;;;;;;1.10;0.97;;;8.20;99.90;;;;;;4213059;28;20217;-67
2022/11/16 06:41:25;;;;;;;1.43;1.07;;;8.20;99.90;;;;;;4212458;28;20217;-67
2022/11/16 06:43:26;;;;;;;3.67;1.10;;;8.00;99.90;;;;;;4213098;28;20175;-68
2022/11/16 06:45:26;;;;;;;6.40;1.20;;;7.90;99.90;;;;;;4212947;28;20175;-68
2022/11/16 06:47:27;;;;;;;3.03;1.20;;;8.00;99.90;;;;;;4212947;28;20190;-67
2022/11/16 06:49:28;;;;;;;3.43;1.50;;;7.90;99.90;;;;;;4227729;28;20688;-68
2022/11/16 06:51:28;;;;;;;2.90;1.37;;;7.90;99.90;;;;;;4212492;28;20599;-67
2022/11/16 06:53:29;;;;;;;3.20;1.10;;;7.80;99.90;;;;;;4212917;28;20185;-67
2022/11/16 06:55:30;;;;;;;2.73;1.23;;;7.80;99.90;;;;;;4212679;28;20239;-68
2022/11/16 06:57:34;;;;;;;2.80;1.10;;;7.90;99.90;;;;;;4212978;28;20192;-67
2022/11/16 06:59:35;;;;;;;3.13;1.53;;;8.00;99.90;;;;;;4212821;28;20199;-68
2022/11/16 07:01:35;;;;;;;4.00;1.30;;;8.00;99.90;;;;;;4212263;28;20202;-67
2022/11/16 07:03:36;;;;;;;2.43;1.00;;;8.00;99.90;;;;;;4212917;28;20227;-67
2022/11/16 07:05:40;;;;;;;4.53;4.03;;;8.20;99.90;;;;;;4215489;28;20189;-68
2022/11/16 07:07:41;;;;;;;3.37;3.07;;;8.10;99.90;;;;;;4214123;28;20184;-67
2022/11/16 07:09:43;;;;;;;5.77;1.40;;;8.00;99.90;;;;;;4212539;28;20179;-67
2022/11/16 07:11:44;;;;;;;3.30;1.30;;;8.00;99.90;;;;;;4216555;28;20181;-67
2022/11/16 07:13:45;;;;;;;3.97;1.40;;;8.10;99.90;;;;;;4228404;28;20260;-68
2022/11/16 07:15:46;;;;;;;3.83;1.20;;;8.20;99.90;;;;;;4238662;28;20550;-68
2022/11/16 07:17:46;;;;;;;5.37;2.90;;;8.20;99.90;;;;;;4235141;28;20197;-67
2022/11/16 07:19:47;;;;;;;6.27;2.23;;;8.10;99.90;;;;;;4229681;28;20293;-67
2022/11/16 07:21:48;;;;;;;6.70;1.70;;;7.90;99.90;;;;;;4228942;28;20181;-67
2022/11/16 07:23:48;;;;;;;8.17;2.87;;;7.90;99.90;;;;;;4229484;28;20205;-67
2022/11/16 07:25:49;;;;;;;7.03;3.67;;;7.80;99.90;;;;;;4229681;28;20188;-67
2022/11/16 07:27:50;;;;;;;4.03;0.87;;;7.80;99.90;;;;;;4229349;28;20185;-66
2022/11/16 07:29:50;;;;;;;1.87;1.07;;;7.60;99.90;;;;;;4227951;28;20233;-67
2022/11/16 07:31:51;;;;;;;2.63;1.00;;;7.60;99.90;;;;;;4228793;28;20589;-68
2022/11/16 07:33:52;;;;;;;1.77;1.30;;;7.60;99.90;;;;;;4229295;28;20273;-68
2022/11/16 07:35:53;;;;;;;2.63;1.00;;;7.60;99.90;;;;;;4229278;28;20576;-67
2022/11/16 07:37:53;;;;;;;4.00;1.87;;;7.50;99.90;;;;;;4229293;28;20230;-68
2022/11/16 07:39:54;;;;;;;3.20;0.87;;;7.60;99.90;;;;;;4244533;27;20220;-66
2022/11/16 07:41:55;;;;;;;1.83;0.80;;;7.50;99.90;;;;;;4228719;28;20644;-67
2022/11/16 07:43:55;;;;;;;2.20;0.97;;;7.60;99.90;;;;;;4229131;28;20558;-68
2022/11/16 07:46:06;;;;;;;3.20;1.47;;;7.50;99.90;;;;;;4227477;28;20244;-67
2022/11/16 07:48:06;;;;;;;1.00;0.80;;;7.50;99.90;;;;;;4227953;28;20203;-67
2022/11/16 07:50:09;;;;;;;4.57;1.63;;;7.50;99.90;;;;;;4229071;28;20209;-67
2022/11/16 07:52:10;;;;;;;4.97;2.37;;;7.60;99.90;;;;;;4227524;28;20770;-67
2022/11/16 07:54:13;;;;;;;2.93;0.90;;;7.50;99.90;;;;;;4229017;28;20185;-67
2022/11/16 07:56:13;;;;;;;2.77;1.40;;;7.60;99.90;;;;;;4228893;28;20219;-68
2022/11/16 07:58:14;;;;;;;3.07;1.20;;;7.60;99.90;;;;;;4228968;28;20257;-67
2022/11/16 08:00:15;;;;;;;5.33;1.83;;;7.70;99.90;;;;;;4228341;28;20296;-68
2022/11/16 08:02:16;;;;;;;2.70;1.70;;;7.70;99.90;;;;;;4229437;28;20178;-69
2022/11/16 08:04:16;;;;;;;5.33;2.07;;;7.70;99.90;;;;;;4228703;28;20652;-68
2022/11/16 08:06:23;;;;;;;3.33;1.60;;;7.80;99.90;;;;;;4222827;28;20566;-67
2022/11/16 08:08:23;;;;;;;2.23;0.80;;;7.70;99.90;;;;;;4227667;28;20249;-68
2022/11/16 08:10:24;;;;;;;7.33;2.30;;;7.80;99.90;;;;;;4226911;28;20202;-67
2022/11/16 08:12:25;;;;;;;3.60;1.00;;;7.80;99.90;;;;;;4228051;28;20186;-67
2022/11/16 08:14:25;;;;;;;2.60;1.37;;;7.80;99.90;;;;;;4228298;28;20189;-67
2022/11/16 08:16:26;;;;;;;2.93;1.13;;;7.70;99.90;;;;;;4228546;28;20178;-68
2022/11/16 08:18:28;;;;;;;1.47;0.90;;;7.80;99.90;;;;;;4228647;28;20704;-67
2022/11/16 08:20:30;;;;;;;3.43;0.80;;;7.90;99.90;;;;;;4228155;28;20866;-67
2022/11/16 08:22:30;;;;;;;3.27;0.70;;;7.90;99.90;;;;;;4228651;28;20178;-67
2022/11/16 08:24:31;;;;;;;1.57;0.80;;;7.80;99.90;;;;;;4228690;28;20709;-67
2022/11/16 08:26:32;;;;;;;2.47;1.67;;;7.80;99.90;;;;;;4228652;28;20524;-68
2022/11/16 08:28:32;;;;;;;7.57;1.07;;;7.90;99.90;;;;;;4227173;28;20242;-67
2022/11/16 08:30:33;;;;;;;5.30;1.40;;;7.80;99.90;;;;;;4212826;28;20205;-67
2022/11/16 08:32:35;;;;;;;1.53;0.93;;;7.90;99.90;;;;;;4211678;28;20177;-68
2022/11/16 08:34:35;;;;;;;2.07;0.83;;;7.90;99.90;;;;;;4210229;28;20229;-67
2022/11/16 08:36:36;;;;;;;2.67;0.90;;;8.00;99.90;;;;;;4211910;28;20406;-68
2022/11/16 08:38:39;;;;;;;1.77;0.70;;;8.00;99.90;;;;;;4211740;28;20278;-68
2022/11/16 08:40:40;;;;;;;4.17;0.90;;;8.10;99.90;;;;;;4211205;28;20690;-67
2022/11/16 08:42:41;;;;;;;2.03;0.80;;;8.20;99.90;;;;;;4210629;28;20189;-67
2022/11/16 08:44:41;;;;;;;2.30;1.17;;;8.20;99.90;;;;;;4211770;28;20186;-67
2022/11/16 08:46:42;;;;;;;4.43;1.33;;;8.20;99.90;;;;;;4211775;28;20182;-68
2022/11/16 08:48:43;;;;;;;4.27;1.50;;;8.30;99.90;;;;;;4211771;28;20191;-67
2022/11/16 08:50:44;;;;;;;4.70;1.50;;;8.50;99.90;;;;;;4211328;28;20198;-67
2022/11/16 08:52:44;;;;;;;5.50;1.10;;;8.60;99.90;;;;;;4211824;28;20179;-68
2022/11/16 08:54:46;;;;;;;2.93;1.23;;;8.80;99.90;;;;;;4211512;28;20190;-68
2022/11/16 08:56:46;;;;;;;3.67;1.20;;;8.90;99.90;;;;;;4227177;28;20188;-68
2022/11/16 08:58:47;;;;;;;2.53;1.00;;;9.10;99.90;;;;;;4211558;28;20736;-68
2022/11/16 09:00:48;;;;;;;3.13;1.00;;;9.40;99.90;;;;;;4211164;28;20195;-67
2022/11/16 09:02:48;;;;;;;3.37;1.17;;;9.60;98.10;;;;;;4210111;28;20212;-67
2022/11/16 09:04:49;;;;;;;4.73;0.93;;;9.60;97.60;;;;;;4211560;28;20175;-68
2022/11/16 09:06:51;;;;;;;1.77;0.77;;;9.10;97.70;;;;;;4211622;28;20341;-66
2022/11/16 09:08:53;;;;;;;3.73;1.43;;;8.90;98.70;;;;;;4211898;28;20175;-68
2022/11/16 09:10:53;;;;;;;2.53;0.80;;;8.80;99.30;;;;;;4209721;28;20222;-67
2022/11/16 09:12:54;;;;;;;3.00;0.80;;;8.90;98.40;;;;;;4213070;28;20222;-67
2022/11/16 09:14:55;;;;;;;1.60;0.80;;;9.00;98.10;;;;;;4214675;28;20283;-67
2022/11/16 09:16:55;;;;;;;2.33;1.10;;;8.90;98.10;;;;;;4220527;28;20275;-68
2022/11/16 09:18:56;;;;;;;1.67;1.23;;;8.90;97.50;;;;;;4223674;28;20322;-67
2022/11/16 09:20:57;;;;;;;4.00;1.30;;;8.80;97.70;;;;;;4213972;28;20206;-67
2022/11/16 09:22:58;;;;;;;2.83;0.83;;;8.80;98.70;;;;;;4214766;28;20182;-68
2022/11/16 09:24:59;;;;;;;6.40;5.90;;;9.20;96.30;;;;;;4214384;28;20179;-67
2022/11/16 09:27:00;;;;;;;1.23;0.80;;;9.60;95.10;;;;;;4214563;28;20638;-68
2022/11/16 09:29:03;;;;;;;2.03;1.10;;;10.10;95.50;;;;;;4214418;28;20175;-67
2022/11/16 09:31:05;;;;;;;3.73;1.50;;;10.70;93.20;;;;;;4213957;28;20317;-67
2022/11/16 09:33:05;;;;;;;3.37;1.53;;;11.00;90.60;;;;;;4229920;28;20182;-67
2022/11/16 09:35:07;;;;;;;2.00;0.87;;;11.30;90.90;;;;;;4214638;28;20182;-68
2022/11/16 09:37:08;;;;;;;3.93;1.20;;;11.30;87.10;;;;;;4214564;28;20274;-68
2022/11/16 09:39:11;;;;;;;4.43;1.10;;;11.20;87.30;;;;;;4212894;28;20647;-68
2022/11/16 09:41:36;;;;;;;3.10;0.90;;;11.00;86.50;;;;;;4217136;28;20198;-68
2022/11/16 09:43:53;;;;;;;3.10;1.00;;;10.90;87.70;;;;;;4214472;28;20282;-68
2022/11/16 09:46:18;;;;;;;2.93;0.70;;;10.70;87.80;;;;;;4214263;28;20186;-67
2022/11/16 09:48:20;;;;;;;5.20;1.23;;;10.20;88.70;;;;;;4214149;28;20182;-67
2022/11/16 09:50:47;;;;;;;3.07;0.80;;;9.80;91.30;;;;;;4212244;28;20720;-67
2022/11/16 09:52:52;;;;;;;3.27;1.40;;;9.80;92.20;;;;;;4212854;28;20198;-68
2022/11/16 09:54:54;;;;;;;2.03;0.80;;;9.50;91.90;;;;;;4214033;28;20190;-68
2022/11/16 09:57:04;;;;;;;1.37;0.77;;;9.10;93.10;;;;;;4212727;28;20175;-67
2022/11/16 09:59:08;;;;;;;4.47;4.20;;;9.40;94.20;;;;;;4212635;28;20278;-68
2022/11/16 10:01:29;;;;;;;3.57;0.80;;;9.90;90.70;;;;;;4213259;28;20268;-68
2022/11/16 10:03:37;;;;;;;4.23;1.70;;;10.60;89.30;;;;;;4212300;28;20164;-67
2022/11/16 10:06:05;;;;;;;1.57;0.67;;;11.10;82.50;;;;;;4212495;28;20171;-69
2022/11/16 10:08:21;;;;;;;4.67;1.17;;;11.10;83.80;;;;;;4213796;28;20183;-68
2022/11/16 10:10:35;;;;;;;7.97;1.93;;;10.80;82.80;;;;;;4212201;28;20252;-67
2022/11/16 10:12:52;;;;;;;3.20;0.70;;;10.50;85.30;;;;;;4213896;28;20159;-67
2022/11/16 10:15:10;;;;;;;2.93;1.00;;;10.50;87.60;;;;;;4213811;28;20191;-68
2022/11/16 10:17:22;;;;;;;4.60;1.20;;;10.90;84.60;;;;;;4213632;28;20155;-68
2022/11/16 10:19:37;;;;;;;4.77;1.00;;;11.50;80.80;;;;;;4212088;28;20236;-68
2022/11/16 10:22:08;;;;;;;2.70;1.00;;;12.30;76.40;;;;;;4212921;28;20203;-68
2022/11/16 10:24:38;;;;;;;3.53;1.10;;;12.60;72.80;;;;;;4211245;28;20187;-68
2022/11/16 10:27:17;;;;;;;2.77;1.00;;;12.90;71.90;;;;;;4213525;28;20522;-68
2022/11/16 10:29:39;;;;;;;2.30;1.17;;;13.10;69.30;;;;;;4213407;28;20195;-67
2022/11/16 10:32:00;;;;;;;4.63;0.90;;;13.20;69.80;;;;;;4226692;28;20259;-68
2022/11/16 10:34:02;;;;;;;3.57;1.57;;;13.60;67.30;;;;;;4212065;28;20607;-67
2022/11/16 10:36:10;;;;;;;2.13;0.93;;;14.10;64.10;;;;;;4213144;28;20658;-68
2022/11/16 10:38:15;;;;;;;4.10;3.73;;;14.60;63.70;;;;;;4213224;28;20239;-68
2022/11/16 10:40:23;;;;;;;4.43;4.10;;;14.80;61.20;;;;;;4212436;28;20614;-67
2022/11/16 10:42:39;;;;;;;2.70;1.87;;;14.90;60.00;;;;;;4213350;28;20170;-68
2022/11/16 10:45:15;;;;;;;4.97;4.53;;;15.10;59.00;;;;;;4213232;28;20211;-68
2022/11/16 10:47:27;;;;;;;4.57;3.43;;;15.40;58.80;;;;;;4213173;28;20320;-68
2022/11/16 10:49:43;;;;;;;4.83;3.87;;;15.10;59.40;;;;;;4212062;28;20685;-68
2022/11/16 10:51:44;;;;;;;2.67;1.00;;;14.40;61.40;;;;;;4212442;28;20175;-68
2022/11/16 10:53:45;;;;;;;2.23;1.00;;;15.00;59.50;;;;;;4213060;28;20218;-67
2022/11/16 10:56:10;;;;;;;1.83;0.97;;;15.40;57.20;;;;;;4212949;28;20270;-68
2022/11/16 10:58:11;;;;;;;3.27;1.07;;;15.50;57.40;;;;;;4212863;28;20163;-68
2022/11/16 11:00:13;;;;;;;3.00;1.13;;;14.70;58.50;;;;;;4212254;28;20630;-68
2022/11/16 11:02:35;;;;;;;2.40;0.90;;;14.30;60.70;;;;;;4212829;28;20653;-68
2022/11/16 11:04:37;;;;;;;3.27;1.10;;;14.30;60.80;;;;;;4212991;28;20220;-68
2022/11/16 11:06:41;;;;;;;2.40;1.53;;;14.70;59.90;;;;;;4212956;28;20183;-68
2022/11/16 11:08:42;;;;;;;2.10;1.30;;;15.60;56.30;;;;;;4212797;28;20618;-69
2022/11/16 11:10:43;;;;;;;1.57;1.23;;;15.70;54.20;;;;;;4210800;28;20203;-68
2022/11/16 11:13:03;;;;;;;3.00;1.20;;;15.90;54.10;;;;;;4212753;28;20183;-68
2022/11/16 11:15:09;;;;;;;4.17;0.90;;;15.80;52.90;;;;;;4212831;28;20167;-68
2022/11/16 11:17:13;;;;;;;2.80;1.00;;;15.40;55.30;;;;;;4212744;28;20210;-68
2022/11/16 11:19:27;;;;;;;3.53;1.27;;;15.50;54.40;;;;;;4223459;28;20253;-68
2022/11/16 11:21:27;;;;;;;3.07;1.00;;;15.00;56.00;;;;;;4221500;28;20194;-68
2022/11/16 11:23:28;;;;;;;3.23;1.00;;;14.80;58.10;;;;;;4213412;28;20240;-68
2022/11/16 11:25:40;;;;;;;2.43;1.10;;;15.20;56.70;;;;;;4213353;28;20167;-67
2022/11/16 11:27:41;;;;;;;2.67;1.00;;;15.20;56.60;;;;;;4211812;28;20640;-67
2022/11/16 11:29:42;;;;;;;3.27;1.00;;;15.80;56.30;;;;;;4212854;28;20175;-68
2022/11/16 11:31:48;;;;;;;3.23;0.90;;;16.30;53.60;;;;;;4212294;28;20282;-68
2022/11/16 11:33:53;;;;;;;2.70;0.93;;;16.60;51.00;;;;;;4212952;28;20216;-68
2022/11/16 11:36:05;;;;;;;3.93;1.70;;;17.00;49.40;;;;;;4212520;28;20181;-68
2022/11/16 11:38:06;;;;;;;3.03;1.00;;;17.60;47.40;;;;;;4224244;28;20178;-68